createdAt,value
2022-11-06T00:01:57.468Z,101351.66
2022-11-06T00:04:25.221Z,101355.53
2022-11-06T00:06:51.819Z,101353.31
2022-11-06T00:09:20.967Z,101347.31
2022-11-06T00:11:50.129Z,101348.84
2022-11-06T00:14:18.656Z,101354.91
2022-11-06T00:16:48.530Z,101348.50
2022-11-06T00:19:18.219Z,101350.97
2022-11-06T00:21:46.336Z,101347.75
2022-11-06T00:24:15.519Z,101352.56
2022-11-06T00:26:43.838Z,101350.91
2022-11-06T00:29:15.084Z,101334.59
2022-11-06T00:31:42.924Z,101329.25
2022-11-06T00:34:11.157Z,101334.75
2022-11-06T00:36:40.141Z,101344.72
2022-11-06T00:39:08.157Z,101286.09
2022-11-06T00:41:35.729Z,101336.31
2022-11-06T00:44:04.008Z,101335.44
2022-11-06T00:46:31.778Z,101331.03
2022-11-06T00:48:59.450Z,101321.47
2022-11-06T00:51:29.079Z,101272.44
2022-11-06T00:53:59.341Z,101321.97
2022-11-06T00:56:28.222Z,101312.88
2022-11-06T00:58:56.324Z,101309.34
2022-11-06T01:01:26.703Z,101214.50
2022-11-06T01:03:56.472Z,101322.03
2022-11-06T01:06:25.931Z,101309.06
2022-11-06T01:08:53.938Z,101324.22
2022-11-06T01:11:24.960Z,101305.66
2022-11-06T01:13:54.250Z,101307.47
2022-11-06T01:16:22.907Z,101315.94
2022-11-06T01:18:50.554Z,101308.31
2022-11-06T01:21:20.258Z,101307.25
2022-11-06T01:23:48.881Z,101312.41
2022-11-06T01:26:28.790Z,101320.66
2022-11-06T01:29:06.927Z,101307.81
2022-11-06T01:31:36.254Z,101296.91
2022-11-06T01:34:04.903Z,101305.41
2022-11-06T01:36:33.364Z,101292.09
2022-11-06T01:39:07.717Z,101290.97
2022-11-06T01:41:37.979Z,101302.06
2022-11-06T01:44:27.921Z,101293.22
2022-11-06T01:46:56.857Z,101284.38
2022-11-06T01:49:24.815Z,101282.19
2022-11-06T01:51:55.977Z,101270.97
2022-11-06T01:54:26.479Z,101274.53
2022-11-06T01:56:58.413Z,101272.88
2022-11-06T01:59:28.968Z,101268.00
2022-11-06T02:01:58.097Z,101253.66
2022-11-06T02:04:28.028Z,101274.06
2022-11-06T02:06:57.686Z,101262.19
2022-11-06T02:09:26.409Z,101245.91
2022-11-06T02:11:59.845Z,101262.22
2022-11-06T02:14:48.770Z,101259.38
2022-11-06T02:17:28.645Z,101252.44
2022-11-06T02:20:04.366Z,101247.03
2022-11-06T02:22:52.739Z,101248.31
2022-11-06T02:25:32.295Z,101212.63
2022-11-06T02:28:04.587Z,101244.09
2022-11-06T02:30:35.813Z,101250.72
2022-11-06T02:33:08.049Z,101237.28
2022-11-06T02:35:40.456Z,101222.63
2022-11-06T02:38:11.152Z,101215.63
2022-11-06T02:40:44.130Z,101232.25
2022-11-06T02:43:15.454Z,101213.06
2022-11-06T02:45:52.129Z,101220.69
2022-11-06T02:48:25.132Z,101221.50
2022-11-06T02:50:55.648Z,101228.53
2022-11-06T02:53:27.038Z,101185.75
2022-11-06T02:55:58.747Z,101213.22
2022-11-06T02:58:33.109Z,101213.84
2022-11-06T03:01:06.156Z,101200.22
2022-11-06T03:03:37.294Z,101202.47
2022-11-06T03:06:10.736Z,101200.03
2022-11-06T03:08:43.227Z,101195.81
2022-11-06T03:11:17.391Z,101191.25
2022-11-06T03:13:55.268Z,101187.91
2022-11-06T03:16:30.470Z,101192.75
2022-11-06T03:19:03.396Z,101179.69
2022-11-06T03:21:37.275Z,101196.16
2022-11-06T03:24:12.153Z,101201.06
2022-11-06T03:26:44.634Z,101199.81
2022-11-06T03:29:18.548Z,101185.28
2022-11-06T03:31:51.625Z,101184.31
2022-11-06T03:34:28.781Z,101187.59
2022-11-06T03:37:02.286Z,101175.41
2022-11-06T03:39:33.359Z,101178.59
2022-11-06T03:42:06.279Z,101177.38
2022-11-06T03:44:39.954Z,101171.75
2022-11-06T03:47:12.490Z,101183.50
2022-11-06T03:49:44.299Z,101163.38
2022-11-06T03:52:17.422Z,101171.16
2022-11-06T03:54:50.244Z,101177.38
2022-11-06T03:57:23.668Z,101164.63
2022-11-06T03:59:58.449Z,101174.16
2022-11-06T04:02:30.800Z,101172.81
2022-11-06T04:05:01.273Z,101168.81
2022-11-06T04:07:34.629Z,101164.03
2022-11-06T04:10:23.979Z,101159.44
2022-11-06T04:13:11.402Z,101160.59
2022-11-06T04:15:45.140Z,101172.44
2022-11-06T04:18:14.117Z,101177.06
2022-11-06T04:21:09.612Z,101187.88
2022-11-06T04:24:12.349Z,101184.31
2022-11-06T04:26:47.777Z,101188.88
2022-11-06T04:29:27.788Z,101188.22
2022-11-06T04:32:03.966Z,101189.63
2022-11-06T04:34:38.824Z,101182.84
2022-11-06T04:37:12.580Z,101182.22
2022-11-06T04:39:50.010Z,101178.97
2022-11-06T04:42:25.082Z,101177.88
2022-11-06T04:44:58.153Z,101185.31
2022-11-06T04:47:27.349Z,101160.97
2022-11-06T04:50:00.065Z,101165.97
2022-11-06T04:52:29.063Z,101167.56
2022-11-06T04:54:59.196Z,101160.22
2022-11-06T04:57:27.728Z,101175.88
2022-11-06T04:59:56.849Z,101176.28
2022-11-06T05:02:24.663Z,101172.78
2022-11-06T05:04:53.696Z,101166.19
2022-11-06T05:07:21.277Z,101164.34
2022-11-06T05:09:49.005Z,101169.53
2022-11-06T05:12:16.666Z,101172.47
2022-11-06T05:14:44.263Z,101078.97
2022-11-06T05:17:11.810Z,101168.50
2022-11-06T05:19:39.449Z,101161.44
2022-11-06T05:22:25.872Z,101177.78
2022-11-06T05:24:53.442Z,101168.19
2022-11-06T05:27:21.098Z,101169.19
2022-11-06T05:29:48.731Z,101164.09
2022-11-06T05:32:16.294Z,101163.00
2022-11-06T05:34:45.886Z,101153.28
2022-11-06T05:37:14.968Z,101168.88
2022-11-06T05:39:42.562Z,101165.09
2022-11-06T05:42:10.473Z,101165.50
2022-11-06T05:44:38.387Z,101164.63
2022-11-06T05:47:06.002Z,101163.50
2022-11-06T05:49:33.674Z,101160.41
2022-11-06T05:52:01.297Z,101161.88
2022-11-06T05:54:30.293Z,101150.66
2022-11-06T05:56:57.849Z,101159.34
2022-11-06T05:59:25.487Z,101165.91
2022-11-06T06:01:53.138Z,101151.84
2022-11-06T06:04:20.889Z,101155.91
2022-11-06T06:06:48.712Z,101169.66
2022-11-06T06:09:16.266Z,101161.88
2022-11-06T06:11:45.192Z,101168.63
2022-11-06T06:14:12.773Z,101173.56
2022-11-06T06:16:40.401Z,101171.31
2022-11-06T06:19:08.249Z,101176.22
2022-11-06T06:21:36.617Z,101164.19
2022-11-06T06:24:04.468Z,101168.72
2022-11-06T06:26:32.571Z,101154.50
2022-11-06T06:29:02.100Z,101173.81
2022-11-06T06:31:30.082Z,101169.34
2022-11-06T06:33:57.667Z,101166.41
2022-11-06T06:36:25.258Z,101167.06
2022-11-06T06:38:52.840Z,101160.97
2022-11-06T06:41:20.419Z,101165.28
2022-11-06T06:43:49.868Z,101160.88
2022-11-06T06:46:18.803Z,101162.69
2022-11-06T06:48:46.491Z,101159.16
2022-11-06T06:51:14.247Z,101158.22
2022-11-06T06:53:41.818Z,101165.97
2022-11-06T06:56:10.352Z,101164.91
2022-11-06T06:58:38.122Z,101156.81
2022-11-06T07:01:10.215Z,101154.59
2022-11-06T07:03:40.022Z,101153.78
2022-11-06T07:06:08.509Z,101165.53
2022-11-06T07:08:36.108Z,101158.28
2022-11-06T07:11:05.510Z,101161.00
2022-11-06T07:13:36.121Z,101155.25
2022-11-06T07:16:05.042Z,101149.19
2022-11-06T07:18:32.682Z,101145.91
2022-11-06T07:21:01.715Z,101161.56
2022-11-06T07:23:29.323Z,101173.75
2022-11-06T07:25:56.939Z,101165.09
2022-11-06T07:28:24.530Z,101155.09
2022-11-06T07:30:52.125Z,101152.44
2022-11-06T07:33:19.702Z,101161.38
2022-11-06T07:35:47.684Z,101164.75
2022-11-06T07:38:16.779Z,101149.66
2022-11-06T07:40:44.572Z,101149.84
2022-11-06T07:43:14.377Z,101108.00
2022-11-06T07:45:41.973Z,101153.09
2022-11-06T07:48:09.664Z,101156.47
2022-11-06T07:50:37.286Z,101151.16
2022-11-06T07:53:05.210Z,101165.53
2022-11-06T07:55:39.203Z,101158.69
2022-11-06T07:58:09.547Z,101158.28
2022-11-06T08:00:37.178Z,101154.16
2022-11-06T08:03:04.910Z,101148.91
2022-11-06T08:05:32.481Z,101147.63
2022-11-06T08:08:00.060Z,101150.09
2022-11-06T08:10:27.804Z,101131.09
2022-11-06T08:12:56.801Z,101140.06
2022-11-06T08:15:24.514Z,101132.06
2022-11-06T08:17:52.118Z,101120.69
2022-11-06T08:20:19.766Z,101108.44
2022-11-06T08:22:47.357Z,101103.22
2022-11-06T08:25:14.969Z,101103.50
2022-11-06T08:27:42.546Z,101094.22
2022-11-06T08:30:13.335Z,101084.84
2022-11-06T08:32:40.923Z,101078.91
2022-11-06T08:35:09.572Z,101085.06
2022-11-06T08:37:37.444Z,101089.91
2022-11-06T08:40:05.793Z,101074.06
2022-11-06T08:42:33.410Z,101088.25
2022-11-06T08:45:00.982Z,101093.34
2022-11-06T08:47:29.903Z,101088.75
2022-11-06T08:49:57.494Z,101094.66
2022-11-06T08:52:28.716Z,101106.97
2022-11-06T08:54:58.841Z,101101.06
2022-11-06T08:57:26.613Z,101086.31
2022-11-06T08:59:54.376Z,101086.59
2022-11-06T09:02:22.048Z,101079.19
2022-11-06T09:04:51.028Z,101078.31
2022-11-06T09:07:18.610Z,101074.25
2022-11-06T09:09:46.201Z,101063.56
2022-11-06T09:12:13.826Z,101079.94
2022-11-06T09:14:41.438Z,101087.44
2022-11-06T09:17:09.045Z,101079.88
2022-11-06T09:19:36.654Z,101082.41
2022-11-06T09:22:05.660Z,101060.47
2022-11-06T09:25:01.277Z,101090.97
2022-11-06T09:27:20.816Z,101088.09
2022-11-06T09:29:49.064Z,101087.06
2022-11-06T09:32:16.670Z,101084.91
2022-11-06T09:34:44.274Z,101095.16
2022-11-06T09:37:13.240Z,101095.13
2022-11-06T09:39:40.810Z,101094.09
2022-11-06T09:42:18.867Z,101097.59
2022-11-06T09:45:02.315Z,101097.31
2022-11-06T09:47:36.624Z,101095.28
2022-11-06T09:50:07.637Z,101081.28
2022-11-06T09:52:41.686Z,101095.91
2022-11-06T09:55:17.156Z,101080.63
2022-11-06T09:57:49.216Z,101073.91
2022-11-06T10:00:18.277Z,101062.03
2022-11-06T10:02:49.399Z,101064.97
2022-11-06T10:05:26.322Z,101056.19
2022-11-06T10:07:57.904Z,101059.47
2022-11-06T10:10:31.800Z,101059.47
2022-11-06T10:13:17.268Z,101071.72
2022-11-06T10:15:52.301Z,101067.66
2022-11-06T10:18:30.365Z,101065.59
2022-11-06T10:21:09.515Z,101057.63
2022-11-06T10:23:46.298Z,101077.69
2022-11-06T10:26:17.831Z,101067.72
2022-11-06T10:29:08.549Z,101071.25
2022-11-06T10:31:45.467Z,101056.28
2022-11-06T10:34:17.052Z,101061.78
2022-11-06T10:36:50.253Z,101066.56
2022-11-06T10:39:22.716Z,101071.75
2022-11-06T10:41:53.562Z,101069.44
2022-11-06T10:44:26.166Z,101066.06
2022-11-06T10:46:56.770Z,101069.97
2022-11-06T10:49:33.005Z,101048.47
2022-11-06T10:52:18.940Z,101061.28
2022-11-06T10:55:00.997Z,101053.41
2022-11-06T10:57:37.899Z,101044.13
2022-11-06T11:00:06.494Z,101036.69
2022-11-06T11:02:38.109Z,101033.38
2022-11-06T11:05:14.042Z,101033.75
2022-11-06T11:07:43.895Z,100972.94
2022-11-06T11:10:30.625Z,101019.88
2022-11-06T11:13:04.120Z,101014.69
2022-11-06T11:15:43.324Z,101004.50
2022-11-06T11:18:18.928Z,101013.84
2022-11-06T11:20:48.271Z,101021.69
2022-11-06T11:23:19.518Z,101010.41
2022-11-06T11:25:50.306Z,101017.06
2022-11-06T11:28:29.819Z,101006.13
2022-11-06T11:31:06.507Z,100994.81
2022-11-06T11:33:34.922Z,101005.56
2022-11-06T11:36:04.669Z,101006.94
2022-11-06T11:38:32.276Z,101007.16
2022-11-06T11:41:09.024Z,101007.41
2022-11-06T11:43:36.743Z,101011.72
2022-11-06T11:46:13.175Z,100995.53
2022-11-06T11:48:46.207Z,100968.97
2022-11-06T11:51:31.708Z,101000.06
2022-11-06T11:54:04.591Z,100994.16
2022-11-06T11:57:03.151Z,101003.84
2022-11-06T11:59:24.921Z,100994.34
2022-11-06T12:01:54.014Z,100976.44
2022-11-06T12:04:28.373Z,100980.13
2022-11-06T12:06:59.508Z,100977.22
2022-11-06T12:09:29.094Z,100973.75
2022-11-06T12:12:00.972Z,100975.59
2022-11-06T12:14:34.826Z,100972.22
2022-11-06T12:17:10.734Z,100954.34
2022-11-06T12:19:41.030Z,100966.28
2022-11-06T12:22:16.683Z,100960.19
2022-11-06T12:24:50.791Z,100957.78
2022-11-06T12:27:24.352Z,100958.00
2022-11-06T12:29:58.530Z,100943.81
2022-11-06T12:32:40.724Z,100939.44
2022-11-06T12:35:19.341Z,100943.03
2022-11-06T12:37:56.305Z,100935.81
2022-11-06T12:40:29.584Z,100922.47
2022-11-06T12:43:11.577Z,100920.28
2022-11-06T12:45:52.913Z,100913.81
2022-11-06T12:48:34.842Z,100908.38
2022-11-06T12:51:13.068Z,100911.75
2022-11-06T12:53:52.959Z,100915.63
2022-11-06T12:56:27.519Z,100904.91
2022-11-06T12:59:13.146Z,100905.88
2022-11-06T13:01:52.894Z,100895.13
2022-11-06T13:04:31.314Z,100888.81
2022-11-06T13:07:31.615Z,100894.31
2022-11-06T13:10:10.112Z,100894.97
2022-11-06T13:12:45.359Z,100890.09
2022-11-06T13:15:26.206Z,100880.34
2022-11-06T13:17:58.343Z,100880.53
2022-11-06T13:20:34.276Z,100875.22
2022-11-06T13:23:07.152Z,100880.25
2022-11-06T13:25:44.303Z,100869.81
2022-11-06T13:28:26.127Z,100780.78
2022-11-06T13:30:57.850Z,100867.88
2022-11-06T13:33:28.263Z,100876.06
2022-11-06T13:35:56.432Z,100872.53
2022-11-06T13:38:29.511Z,100869.94
2022-11-06T13:41:03.824Z,100857.13
2022-11-06T13:43:36.847Z,100847.88
2022-11-06T13:46:15.883Z,100850.97
2022-11-06T13:48:54.131Z,100846.38
2022-11-06T13:51:27.427Z,100851.13
2022-11-06T13:54:04.170Z,100849.63
2022-11-06T13:56:48.895Z,100848.44
2022-11-06T13:59:35.020Z,100856.06
2022-11-06T14:02:24.168Z,100851.59
2022-11-06T14:05:14.787Z,100845.34
2022-11-06T14:07:43.348Z,100838.66
2022-11-06T14:10:19.925Z,100833.72
2022-11-06T14:12:48.554Z,100831.88
2022-11-06T14:15:29.242Z,100840.53
2022-11-06T14:18:00.589Z,100833.41
2022-11-06T14:20:32.539Z,100826.84
2022-11-06T14:23:37.930Z,100819.72
2022-11-06T14:26:10.243Z,100802.84
2022-11-06T14:28:39.456Z,100813.75
2022-11-06T14:31:13.978Z,100809.81
2022-11-06T14:34:03.207Z,100807.09
2022-11-06T14:36:36.414Z,100796.50
2022-11-06T14:39:04.933Z,100803.44
2022-11-06T14:41:57.933Z,100802.69
2022-11-06T14:44:40.998Z,100800.84
2022-11-06T14:47:10.293Z,100798.19
2022-11-06T14:49:43.715Z,100798.25
2022-11-06T14:52:15.664Z,100789.59
2022-11-06T14:54:53.281Z,100779.84
2022-11-06T14:57:40.235Z,100756.47
2022-11-06T15:00:09.450Z,100783.25
2022-11-06T15:02:38.361Z,100787.16
2022-11-06T15:05:14.369Z,100787.41
2022-11-06T15:08:15.676Z,100786.56
2022-11-06T15:10:54.984Z,100787.19
2022-11-06T15:13:31.577Z,100787.38
2022-11-06T15:16:04.811Z,100789.16
2022-11-06T15:18:36.786Z,100784.41
2022-11-06T15:21:11.625Z,100786.47
2022-11-06T15:23:49.740Z,100782.88
2022-11-06T15:26:24.822Z,100793.16
2022-11-06T15:29:07.864Z,100801.44
2022-11-06T15:31:35.546Z,100790.59
2022-11-06T15:34:06.767Z,100815.38
2022-11-06T15:36:40.729Z,100818.91
2022-11-06T15:39:32.544Z,100812.25
2022-11-06T15:42:00.879Z,100808.50
2022-11-06T15:44:28.689Z,100816.97
2022-11-06T15:46:57.966Z,100815.00
2022-11-06T15:49:26.730Z,100817.06
2022-11-06T15:51:58.013Z,100812.44
2022-11-06T15:54:37.465Z,100814.88
2022-11-06T15:57:14.577Z,100818.19
2022-11-06T15:59:42.216Z,100807.63
2022-11-06T16:02:17.024Z,100807.81
2022-11-06T16:04:45.525Z,100808.50
2022-11-06T16:07:15.937Z,100797.69
2022-11-06T16:09:44.078Z,100809.41
2022-11-06T16:12:13.728Z,100799.78
2022-11-06T16:14:44.161Z,100792.44
2022-11-06T16:17:17.416Z,100792.53
2022-11-06T16:19:48.596Z,100787.41
2022-11-06T16:22:19.136Z,100778.56
2022-11-06T16:24:49.885Z,100786.75
2022-11-06T16:27:17.589Z,100785.81
2022-11-06T16:29:48.362Z,100770.66
2022-11-06T16:32:18.949Z,100764.69
2022-11-06T16:34:47.899Z,100779.28
2022-11-06T16:37:37.747Z,100780.03
2022-11-06T16:40:29.438Z,100774.81
2022-11-06T16:43:04.346Z,100769.63
2022-11-06T16:45:32.260Z,100774.53
2022-11-06T16:48:25.202Z,100780.38
2022-11-06T16:50:54.786Z,100770.16
2022-11-06T16:53:26.378Z,100771.63
2022-11-06T16:55:55.478Z,100771.03
2022-11-06T16:58:24.300Z,100767.03
2022-11-06T17:01:00.862Z,100763.38
2022-11-06T17:03:34.932Z,100729.16
2022-11-06T17:06:02.765Z,100757.34
2022-11-06T17:08:35.900Z,100757.47
2022-11-06T17:11:21.419Z,100712.25
2022-11-06T17:13:50.287Z,100749.09
2022-11-06T17:16:19.726Z,100747.59
2022-11-06T17:18:47.936Z,100738.97
2022-11-06T17:21:17.623Z,100739.13
2022-11-06T17:23:47.688Z,100713.91
2022-11-06T17:26:19.985Z,100705.13
2022-11-06T17:28:47.868Z,100724.00
2022-11-06T17:31:17.376Z,100714.72
2022-11-06T17:33:45.749Z,100718.91
2022-11-06T17:36:18.820Z,100722.81
2022-11-06T17:38:49.346Z,100701.03
2022-11-06T17:41:29.641Z,100716.41
2022-11-06T17:43:58.234Z,100703.72
2022-11-06T17:46:27.261Z,100709.81
2022-11-06T17:48:55.395Z,100709.72
2022-11-06T17:51:40.706Z,100703.03
2022-11-06T17:54:10.076Z,100701.09
2022-11-06T17:56:38.437Z,100686.38
2022-11-06T17:59:06.277Z,100694.00
2022-11-06T18:01:33.991Z,100687.34
2022-11-06T18:04:01.926Z,100663.75
2022-11-06T18:06:29.632Z,100693.69
2022-11-06T18:08:57.987Z,100691.63
2022-11-06T18:11:27.811Z,100696.59
2022-11-06T18:13:56.501Z,100687.16
2022-11-06T18:16:27.262Z,100681.22
2022-11-06T18:18:55.972Z,100677.66
2022-11-06T18:21:23.945Z,100668.94
2022-11-06T18:23:51.754Z,100614.31
2022-11-06T18:26:21.422Z,100661.16
2022-11-06T18:28:50.396Z,100664.00
2022-11-06T18:31:18.714Z,100657.84
2022-11-06T18:33:46.710Z,100651.69
2022-11-06T18:36:15.492Z,100657.78
2022-11-06T18:38:43.953Z,100650.13
2022-11-06T18:41:13.162Z,100648.94
2022-11-06T18:43:41.306Z,100637.63
2022-11-06T18:46:12.348Z,100629.06
2022-11-06T18:48:40.237Z,100639.47
2022-11-06T18:51:08.166Z,100634.78
2022-11-06T18:53:35.785Z,100626.13
2022-11-06T18:56:03.783Z,100623.47
2022-11-06T18:58:31.468Z,100619.91
2022-11-06T19:01:01.929Z,100629.47
2022-11-06T19:03:31.056Z,100626.88
2022-11-06T19:05:58.639Z,100627.50
2022-11-06T19:08:26.421Z,100629.19
2022-11-06T19:10:54.094Z,100612.38
2022-11-06T19:13:21.848Z,100602.34
2022-11-06T19:15:49.455Z,100616.22
2022-11-06T19:18:17.288Z,100613.22
2022-11-06T19:20:46.452Z,100606.78
2022-11-06T19:23:15.919Z,100607.44
2022-11-06T19:25:45.765Z,100611.66
2022-11-06T19:28:13.759Z,100617.19
2022-11-06T19:30:41.469Z,100592.66
2022-11-06T19:33:09.108Z,100589.56
2022-11-06T19:35:36.784Z,100595.38
2022-11-06T19:38:05.725Z,100594.47
2022-11-06T19:40:33.919Z,100566.69
2022-11-06T19:43:03.802Z,100595.44
2022-11-06T19:45:31.406Z,100597.13
2022-11-06T19:48:00.428Z,100592.22
2022-11-06T19:50:53.625Z,100582.69
2022-11-06T19:53:21.484Z,100597.94
2022-11-06T19:55:49.334Z,100594.06
2022-11-06T19:58:18.282Z,100568.41
2022-11-06T20:00:47.935Z,100583.72
2022-11-06T20:03:16.634Z,100581.25
2022-11-06T20:05:44.648Z,100541.00
2022-11-06T20:08:12.376Z,100566.69
2022-11-06T20:10:42.128Z,100552.66
2022-11-06T20:13:09.763Z,100568.41
2022-11-06T20:15:37.786Z,100563.50
2022-11-06T20:18:05.813Z,100566.03
2022-11-06T20:20:36.472Z,100574.94
2022-11-06T20:23:04.835Z,100568.25
2022-11-06T20:25:32.396Z,100576.66
2022-11-06T20:28:01.355Z,100583.78
2022-11-06T20:30:28.949Z,100568.91
2022-11-06T20:32:56.532Z,100590.16
2022-11-06T20:35:24.122Z,100593.16
2022-11-06T20:37:51.693Z,100599.56
2022-11-06T20:40:19.403Z,100600.31
2022-11-06T20:42:47.130Z,100598.88
2022-11-06T20:45:16.059Z,100608.28
2022-11-06T20:47:43.626Z,100617.53
2022-11-06T20:50:11.575Z,100625.84
2022-11-06T20:52:39.158Z,100623.50
2022-11-06T20:55:07.262Z,100627.31
2022-11-06T20:57:35.005Z,100622.94
2022-11-06T21:00:02.640Z,100621.34
2022-11-06T21:02:31.715Z,100618.69
2022-11-06T21:04:59.356Z,100612.88
2022-11-06T21:07:26.948Z,100600.19
2022-11-06T21:09:54.525Z,100598.91
2022-11-06T21:12:22.097Z,100589.41
2022-11-06T21:14:50.000Z,100593.16
2022-11-06T21:17:17.594Z,100566.38
2022-11-06T21:19:46.566Z,100548.38
2022-11-06T21:22:14.229Z,100557.25
2022-11-06T21:24:41.936Z,100564.03
2022-11-06T21:27:10.733Z,100562.59
2022-11-06T21:29:38.313Z,100566.75
2022-11-06T21:32:06.380Z,100566.50
2022-11-06T21:34:33.967Z,100573.75
2022-11-06T21:37:03.284Z,100575.53
2022-11-06T21:39:35.768Z,100572.94
2022-11-06T21:42:04.685Z,100570.25
2022-11-06T21:44:32.411Z,100573.91
2022-11-06T21:47:00.021Z,100579.66
2022-11-06T21:49:27.621Z,100578.75
2022-11-06T21:52:15.285Z,100572.16
2022-11-06T21:55:01.891Z,100574.91
2022-11-06T21:57:29.490Z,100572.31
2022-11-06T21:59:58.166Z,100574.00
2022-11-06T22:02:25.843Z,100559.19
2022-11-06T22:04:53.454Z,100551.31
2022-11-06T22:07:21.014Z,100555.19
2022-11-06T22:09:49.965Z,100553.75
2022-11-06T22:12:17.530Z,100557.91
2022-11-06T22:14:45.104Z,100547.69
2022-11-06T22:17:12.694Z,100537.69
2022-11-06T22:19:40.795Z,100538.16
2022-11-06T22:22:08.502Z,100539.84
2022-11-06T22:24:36.073Z,100539.44
2022-11-06T22:27:05.166Z,100536.16
2022-11-06T22:29:32.756Z,100551.63
2022-11-06T22:32:00.346Z,100531.19
2022-11-06T22:34:27.959Z,100525.16
2022-11-06T22:36:55.559Z,100530.19
2022-11-06T22:39:23.127Z,100527.13
2022-11-06T22:41:50.778Z,100526.06
2022-11-06T22:44:20.108Z,100518.00
2022-11-06T22:46:47.886Z,100522.78
2022-11-06T22:49:15.452Z,100520.78
2022-11-06T22:51:43.095Z,100521.41
2022-11-06T22:54:10.704Z,100511.25
2022-11-06T22:56:38.292Z,100510.56
2022-11-06T22:59:08.751Z,100506.38
2022-11-06T23:01:42.239Z,100515.88
2022-11-06T23:04:14.866Z,100506.81
2022-11-06T23:06:43.255Z,100497.47
2022-11-06T23:09:10.986Z,100492.31
2022-11-06T23:11:38.556Z,100511.53
2022-11-06T23:14:08.924Z,100514.59
2022-11-06T23:16:55.794Z,100497.34
2022-11-06T23:19:24.457Z,100499.28
2022-11-06T23:21:52.414Z,100510.06
2022-11-06T23:24:20.062Z,100513.53
2022-11-06T23:26:47.628Z,100509.97
2022-11-06T23:29:15.265Z,100499.53
2022-11-06T23:31:44.205Z,100496.22
2022-11-06T23:34:11.797Z,100519.22
2022-11-06T23:36:39.377Z,100500.38
2022-11-06T23:39:06.953Z,100500.91
2022-11-06T23:41:46.623Z,100509.28
2022-11-06T23:44:32.776Z,100506.31
2022-11-06T23:47:02.345Z,100511.66
2022-11-06T23:49:29.997Z,100508.22
2022-11-06T23:51:57.980Z,100521.47
2022-11-06T23:54:26.349Z,100519.50
2022-11-06T23:56:53.992Z,100521.81
2022-11-06T23:59:21.838Z,100521.25
